createdAt,value
2023-05-05T00:00:15.733Z,7.86
2023-05-05T00:01:17.676Z,7.75
2023-05-05T00:02:19.438Z,7.69
2023-05-05T00:03:21.764Z,7.74
2023-05-05T00:04:24.211Z,7.65
2023-05-05T00:05:25.817Z,7.73
2023-05-05T00:06:28.714Z,7.67
2023-05-05T00:07:30.363Z,7.66
2023-05-05T00:08:32.066Z,7.60
2023-05-05T00:09:33.627Z,7.68
2023-05-05T00:10:35.218Z,7.72
2023-05-05T00:11:36.797Z,7.65
2023-05-05T00:12:38.386Z,7.66
2023-05-05T00:13:40.020Z,7.62
2023-05-05T00:14:41.672Z,7.60
2023-05-05T00:15:44.861Z,7.58
2023-05-05T00:16:47.133Z,7.53
2023-05-05T00:17:48.745Z,7.53
2023-05-05T00:18:50.414Z,7.49
2023-05-05T00:19:52.341Z,7.49
2023-05-05T00:20:53.959Z,7.48
2023-05-05T00:21:55.679Z,7.55
2023-05-05T00:22:57.349Z,7.48
2023-05-05T00:23:58.952Z,7.48
2023-05-05T00:25:00.784Z,7.45
2023-05-05T00:26:02.447Z,7.35
2023-05-05T00:27:04.059Z,7.35
2023-05-05T00:28:05.748Z,7.36
2023-05-05T00:29:07.363Z,7.40
2023-05-05T00:30:09.812Z,7.39
2023-05-05T00:31:11.548Z,7.42
2023-05-05T00:32:13.192Z,7.57
2023-05-05T00:33:14.799Z,7.46
2023-05-05T00:34:16.532Z,7.44
2023-05-05T00:35:18.294Z,7.48
2023-05-05T00:36:19.889Z,7.55
2023-05-05T00:37:21.568Z,7.67
2023-05-05T00:38:23.396Z,7.61
2023-05-05T00:39:25.325Z,7.50
2023-05-05T00:40:27.085Z,7.43
2023-05-05T00:41:28.664Z,7.52
2023-05-05T00:42:39.782Z,7.48
2023-05-05T00:43:41.416Z,7.44
2023-05-05T00:44:43.136Z,7.43
2023-05-05T00:45:47.564Z,7.46
2023-05-05T00:46:49.314Z,7.40
2023-05-05T00:47:52.782Z,7.39
2023-05-05T00:48:54.693Z,7.37
2023-05-05T00:49:56.325Z,7.67
2023-05-05T00:50:58.645Z,7.44
2023-05-05T00:52:00.334Z,7.39
2023-05-05T00:53:03.573Z,7.35
2023-05-05T00:54:05.540Z,7.33
2023-05-05T00:55:07.396Z,7.31
2023-05-05T00:56:09.047Z,7.39
2023-05-05T00:57:10.932Z,7.38
2023-05-05T00:58:13.562Z,7.53
2023-05-05T00:59:15.230Z,7.45
2023-05-05T01:00:17.775Z,7.47
2023-05-05T01:01:19.635Z,7.37
2023-05-05T01:02:24.771Z,7.31
2023-05-05T01:03:26.651Z,7.25
2023-05-05T01:04:28.373Z,7.18
2023-05-05T01:05:35.421Z,7.11
2023-05-05T01:06:55.564Z,7.05
2023-05-05T01:08:23.048Z,7.05
2023-05-05T01:09:37.257Z,7.01
2023-05-05T01:10:45.912Z,7.06
2023-05-05T01:12:00.432Z,7.10
2023-05-05T01:13:35.105Z,7.11
2023-05-05T01:14:43.255Z,7.02
2023-05-05T01:15:51.856Z,7.01
2023-05-05T01:16:57.279Z,6.98
2023-05-05T01:18:06.996Z,6.96
2023-05-05T01:19:21.892Z,7.10
2023-05-05T01:20:36.226Z,7.10
2023-05-05T01:21:47.304Z,7.07
2023-05-05T01:22:57.640Z,7.11
2023-05-05T01:24:11.204Z,7.13
2023-05-05T01:25:40.858Z,7.42
2023-05-05T01:27:21.185Z,7.32
2023-05-05T01:28:31.491Z,7.40
2023-05-05T01:30:13.512Z,7.32
2023-05-05T01:31:39.983Z,7.25
2023-05-05T01:32:45.941Z,7.29
2023-05-05T01:33:58.984Z,7.17
2023-05-05T01:35:02.942Z,7.09
2023-05-05T01:36:13.478Z,7.16
2023-05-05T01:37:30.635Z,7.30
2023-05-05T01:38:37.056Z,7.25
2023-05-05T01:39:41.373Z,7.48
2023-05-05T01:40:48.334Z,7.31
2023-05-05T01:41:51.360Z,7.27
2023-05-05T01:42:54.641Z,7.25
2023-05-05T01:43:57.290Z,7.22
2023-05-05T01:44:58.851Z,7.39
2023-05-05T01:46:00.853Z,7.31
2023-05-05T01:47:03.515Z,7.28
2023-05-05T01:48:06.494Z,7.25
2023-05-05T01:49:10.192Z,7.25
2023-05-05T01:50:12.422Z,7.19
2023-05-05T01:51:15.902Z,7.15
2023-05-05T01:52:17.816Z,7.14
2023-05-05T01:53:20.435Z,7.14
2023-05-05T01:54:23.740Z,7.05
2023-05-05T01:55:26.348Z,7.04
2023-05-05T01:56:28.884Z,7.06
2023-05-05T01:57:30.940Z,7.08
2023-05-05T01:58:32.836Z,7.10
2023-05-05T01:59:35.932Z,7.10
2023-05-05T02:00:38.634Z,7.06
2023-05-05T02:01:41.631Z,7.07
2023-05-05T02:02:45.662Z,7.07
2023-05-05T02:03:47.772Z,7.08
2023-05-05T02:04:49.806Z,7.12
2023-05-05T02:05:52.211Z,7.08
2023-05-05T02:06:54.666Z,7.05
2023-05-05T02:07:58.310Z,7.01
2023-05-05T02:09:00.647Z,6.96
2023-05-05T02:10:03.043Z,6.92
2023-05-05T02:11:05.452Z,6.88
2023-05-05T02:12:07.589Z,6.86
2023-05-05T02:13:11.048Z,6.85
2023-05-05T02:14:12.904Z,6.80
2023-05-05T02:15:18.690Z,6.84
2023-05-05T02:16:20.707Z,6.85
2023-05-05T02:17:23.039Z,6.83
2023-05-05T02:18:25.840Z,6.79
2023-05-05T02:19:30.493Z,6.73
2023-05-05T02:20:32.391Z,6.76
2023-05-05T02:21:35.761Z,6.73
2023-05-05T02:22:37.720Z,6.74
2023-05-05T02:23:39.345Z,6.75
2023-05-05T02:24:40.929Z,6.75
2023-05-05T02:25:43.845Z,6.75
2023-05-05T02:26:48.516Z,6.77
2023-05-05T02:27:50.520Z,6.76
2023-05-05T02:29:07.449Z,6.73
2023-05-05T02:30:11.265Z,6.76
2023-05-05T02:31:14.083Z,6.78
2023-05-05T02:32:24.195Z,6.79
2023-05-05T02:33:26.837Z,6.93
2023-05-05T02:34:29.577Z,6.97
2023-05-05T02:35:35.846Z,6.92
2023-05-05T02:36:39.947Z,6.93
2023-05-05T02:37:48.483Z,6.89
2023-05-05T02:38:56.392Z,6.96
2023-05-05T02:40:05.552Z,7.02
2023-05-05T02:41:09.372Z,7.14
2023-05-05T02:42:13.551Z,7.08
2023-05-05T02:43:17.079Z,7.04
2023-05-05T02:44:19.965Z,7.14
2023-05-05T02:45:22.731Z,7.03
2023-05-05T02:46:24.880Z,7.04
2023-05-05T02:47:36.667Z,6.96
2023-05-05T02:48:38.334Z,6.93
2023-05-05T02:49:39.955Z,6.94
2023-05-05T02:50:41.574Z,7.22
2023-05-05T02:51:57.897Z,7.08
2023-05-05T02:53:02.226Z,7.08
2023-05-05T02:54:04.161Z,7.07
2023-05-05T02:55:06.477Z,7.10
2023-05-05T02:56:24.192Z,7.10
2023-05-05T02:57:35.478Z,7.14
2023-05-05T02:59:00.221Z,7.09
2023-05-05T03:00:06.611Z,7.08
2023-05-05T03:01:40.629Z,7.10
2023-05-05T03:02:45.981Z,7.08
2023-05-05T03:04:13.308Z,7.09
2023-05-05T03:05:23.303Z,7.10
2023-05-05T03:06:27.200Z,7.13
2023-05-05T03:07:34.790Z,7.10
2023-05-05T03:09:11.162Z,7.10
2023-05-05T03:10:20.311Z,7.06
2023-05-05T03:11:29.520Z,7.09
2023-05-05T03:12:37.905Z,7.20
2023-05-05T03:13:54.082Z,7.12
2023-05-05T03:14:58.649Z,7.17
2023-05-05T03:16:06.578Z,7.10
2023-05-05T03:17:11.542Z,7.10
2023-05-05T03:18:15.713Z,7.09
2023-05-05T03:19:21.392Z,7.20
2023-05-05T03:20:27.440Z,7.16
2023-05-05T03:21:30.495Z,7.07
2023-05-05T03:22:36.140Z,7.14
2023-05-05T03:23:37.965Z,7.29
2023-05-05T03:24:49.714Z,7.14
2023-05-05T03:25:51.917Z,7.25
2023-05-05T03:27:03.040Z,7.13
2023-05-05T03:28:09.394Z,7.07
2023-05-05T03:29:11.333Z,7.13
2023-05-05T03:30:20.156Z,7.04
2023-05-05T03:31:24.969Z,7.03
2023-05-05T03:32:30.993Z,7.02
2023-05-05T03:33:32.620Z,7.14
2023-05-05T03:34:37.372Z,7.06
2023-05-05T03:35:40.248Z,7.21
2023-05-05T03:36:44.394Z,7.24
2023-05-05T03:37:48.085Z,7.33
2023-05-05T03:38:51.458Z,7.26
2023-05-05T03:39:54.522Z,7.40
2023-05-05T03:40:56.827Z,7.37
2023-05-05T03:42:00.860Z,7.29
2023-05-05T03:43:06.092Z,7.27
2023-05-05T03:44:07.929Z,7.31
2023-05-05T03:45:10.839Z,7.27
2023-05-05T03:46:13.715Z,7.32
2023-05-05T03:47:16.808Z,7.33
2023-05-05T03:48:19.426Z,7.40
2023-05-05T03:49:21.136Z,7.33
2023-05-05T03:50:24.324Z,7.26
2023-05-05T03:51:26.151Z,7.16
2023-05-05T03:52:27.990Z,7.09
2023-05-05T03:53:29.676Z,7.02
2023-05-05T03:54:31.541Z,6.98
2023-05-05T03:55:33.209Z,6.97
2023-05-05T03:56:34.799Z,6.90
2023-05-05T03:57:36.468Z,6.94
2023-05-05T03:58:38.038Z,6.94
2023-05-05T03:59:39.664Z,6.96
2023-05-05T04:00:41.461Z,6.95
2023-05-05T04:01:45.042Z,6.95
2023-05-05T04:02:46.699Z,6.90
2023-05-05T04:03:51.253Z,6.86
2023-05-05T04:04:53.362Z,6.85
2023-05-05T04:05:55.029Z,6.88
2023-05-05T04:06:57.078Z,6.91
2023-05-05T04:07:59.127Z,6.91
2023-05-05T04:09:00.873Z,6.90
2023-05-05T04:10:02.529Z,6.95
2023-05-05T04:11:04.200Z,7.01
2023-05-05T04:12:07.668Z,6.99
2023-05-05T04:13:09.534Z,7.00
2023-05-05T04:14:11.648Z,7.07
2023-05-05T04:15:13.274Z,7.15
2023-05-05T04:16:16.132Z,7.20
2023-05-05T04:17:17.879Z,7.36
2023-05-05T04:18:19.500Z,7.46
2023-05-05T04:19:21.198Z,7.55
2023-05-05T04:20:22.987Z,7.79
2023-05-05T04:21:24.723Z,7.89
2023-05-05T04:22:26.303Z,7.91
2023-05-05T04:23:27.985Z,7.97
2023-05-05T04:24:29.741Z,7.90
2023-05-05T04:25:31.608Z,7.97
2023-05-05T04:26:33.399Z,7.98
2023-05-05T04:27:35.280Z,7.97
2023-05-05T04:28:36.877Z,8.08
2023-05-05T04:29:38.442Z,8.14
2023-05-05T04:30:40.747Z,8.16
2023-05-05T04:31:42.820Z,8.12
2023-05-05T04:32:44.602Z,8.27
2023-05-05T04:33:46.215Z,8.23
2023-05-05T04:34:48.481Z,8.21
2023-05-05T04:35:50.821Z,8.24
2023-05-05T04:36:52.448Z,8.25
2023-05-05T04:37:54.851Z,8.31
2023-05-05T04:38:56.678Z,8.43
2023-05-05T04:39:58.561Z,8.40
2023-05-05T04:41:00.194Z,8.43
2023-05-05T04:42:02.287Z,8.44
2023-05-05T04:43:04.006Z,8.54
2023-05-05T04:44:06.101Z,8.61
2023-05-05T04:45:08.857Z,8.68
2023-05-05T04:46:10.882Z,8.73
2023-05-05T04:47:14.561Z,8.75
2023-05-05T04:48:16.724Z,8.87
2023-05-05T04:49:18.359Z,8.93
2023-05-05T04:50:20.387Z,8.89
2023-05-05T04:51:22.648Z,8.81
2023-05-05T04:52:24.215Z,8.79
2023-05-05T04:53:26.475Z,8.85
2023-05-05T04:54:29.017Z,8.83
2023-05-05T04:55:30.671Z,8.78
2023-05-05T04:56:32.531Z,8.87
2023-05-05T04:57:34.130Z,9.11
2023-05-05T04:58:36.015Z,9.04
2023-05-05T04:59:37.709Z,9.11
2023-05-05T05:00:39.440Z,9.14
2023-05-05T05:01:41.227Z,9.20
2023-05-05T05:02:42.912Z,9.19
2023-05-05T05:03:44.742Z,9.38
2023-05-05T05:04:46.956Z,9.48
2023-05-05T05:05:48.588Z,9.63
2023-05-05T05:06:50.176Z,9.75
2023-05-05T05:07:51.793Z,9.83
2023-05-05T05:08:53.385Z,9.88
2023-05-05T05:09:55.019Z,9.89
2023-05-05T05:10:56.592Z,10.01
2023-05-05T05:12:04.339Z,10.14
2023-05-05T05:13:05.937Z,10.08
2023-05-05T05:14:07.536Z,10.53
2023-05-05T05:15:10.003Z,10.43
2023-05-05T05:16:11.504Z,10.49
2023-05-05T05:17:13.323Z,10.64
2023-05-05T05:18:14.994Z,10.63
2023-05-05T05:19:16.946Z,10.75
2023-05-05T05:20:18.997Z,10.76
2023-05-05T05:21:21.259Z,10.83
2023-05-05T05:22:23.271Z,10.89
2023-05-05T05:23:24.903Z,10.92
2023-05-05T05:24:26.504Z,10.99
2023-05-05T05:25:29.043Z,11.09
2023-05-05T05:26:31.030Z,11.07
2023-05-05T05:27:32.607Z,11.17
2023-05-05T05:28:34.147Z,11.34
2023-05-05T05:29:35.716Z,11.46
2023-05-05T05:30:37.459Z,11.74
2023-05-05T05:31:40.949Z,13.31
2023-05-05T05:32:42.661Z,13.89
2023-05-05T05:33:45.219Z,14.58
2023-05-05T05:34:48.397Z,14.98
2023-05-05T05:35:51.097Z,14.79
2023-05-05T05:36:54.786Z,15.08
2023-05-05T05:37:57.319Z,15.76
2023-05-05T05:38:59.773Z,16.42
2023-05-05T05:40:02.548Z,16.74
2023-05-05T05:41:07.672Z,16.51
2023-05-05T05:42:10.926Z,16.06
2023-05-05T05:43:12.485Z,15.86
2023-05-05T05:44:14.124Z,15.69
2023-05-05T05:45:16.314Z,15.40
2023-05-05T05:46:19.336Z,15.06
2023-05-05T05:47:21.460Z,15.77
2023-05-05T05:48:28.303Z,15.36
2023-05-05T05:49:30.506Z,17.04
2023-05-05T05:50:32.093Z,17.71
2023-05-05T05:51:34.317Z,18.36
2023-05-05T05:52:36.860Z,18.98
2023-05-05T05:53:40.394Z,19.62
2023-05-05T05:54:43.323Z,20.11
2023-05-05T05:55:49.114Z,20.33
2023-05-05T05:56:50.777Z,20.34
2023-05-05T05:57:52.426Z,20.87
2023-05-05T05:58:54.661Z,21.23
2023-05-05T05:59:58.841Z,21.11
2023-05-05T06:01:03.946Z,21.36
2023-05-05T06:02:06.053Z,21.62
2023-05-05T06:03:08.188Z,21.94
2023-05-05T06:04:13.227Z,22.39
2023-05-05T06:05:15.140Z,22.39
2023-05-05T06:06:17.820Z,22.35
2023-05-05T06:07:19.677Z,22.26
2023-05-05T06:08:24.317Z,23.00
2023-05-05T06:09:27.889Z,22.87
2023-05-05T06:10:30.281Z,23.31
2023-05-05T06:11:37.082Z,23.33
2023-05-05T06:12:38.741Z,23.50
2023-05-05T06:13:40.369Z,23.35
2023-05-05T06:14:42.030Z,23.50
2023-05-05T06:15:43.696Z,24.04
2023-05-05T06:16:47.647Z,24.15
2023-05-05T06:17:53.577Z,24.84
2023-05-05T06:18:56.461Z,25.01
2023-05-05T06:19:58.084Z,25.23
2023-05-05T06:21:00.215Z,24.61
2023-05-05T06:22:03.205Z,23.96
2023-05-05T06:23:04.801Z,24.29
2023-05-05T06:24:08.867Z,24.51
2023-05-05T06:25:11.184Z,24.57
2023-05-05T06:26:13.646Z,24.49
2023-05-05T06:27:15.477Z,23.75
2023-05-05T06:28:17.639Z,24.52
2023-05-05T06:29:19.295Z,25.10
2023-05-05T06:30:20.901Z,25.32
2023-05-05T06:31:22.818Z,25.99
2023-05-05T06:32:24.474Z,25.99
2023-05-05T06:33:26.076Z,26.47
2023-05-05T06:34:27.691Z,25.95
2023-05-05T06:35:30.294Z,26.84
2023-05-05T06:36:32.358Z,27.29
2023-05-05T06:37:34.025Z,26.39
2023-05-05T06:38:36.474Z,26.53
2023-05-05T06:39:38.050Z,27.05
2023-05-05T06:40:39.594Z,27.40
2023-05-05T06:41:41.498Z,26.65
2023-05-05T06:42:43.058Z,26.76
2023-05-05T06:43:50.530Z,27.29
2023-05-05T06:44:52.116Z,27.70
2023-05-05T06:45:53.690Z,27.21
2023-05-05T06:46:55.420Z,27.49
2023-05-05T06:47:57.106Z,27.76
2023-05-05T06:48:58.671Z,27.70
2023-05-05T06:50:00.221Z,27.16
2023-05-05T06:51:02.782Z,27.37
2023-05-05T06:52:04.581Z,27.34
2023-05-05T06:53:06.205Z,27.54
2023-05-05T06:54:07.889Z,28.29
2023-05-05T06:55:09.801Z,28.38
2023-05-05T06:56:11.609Z,28.64
2023-05-05T06:57:13.222Z,28.90
2023-05-05T06:58:14.854Z,28.71
2023-05-05T06:59:16.651Z,28.78
2023-05-05T07:00:18.673Z,28.60
2023-05-05T07:01:20.346Z,29.43
2023-05-05T07:02:22.566Z,29.48
2023-05-05T07:03:25.314Z,29.89
2023-05-05T07:04:26.954Z,30.57
2023-05-05T07:05:28.568Z,30.38
2023-05-05T07:06:30.167Z,30.20
2023-05-05T07:07:32.521Z,30.92
2023-05-05T07:08:34.153Z,31.10
2023-05-05T07:09:35.960Z,31.20
2023-05-05T07:10:37.825Z,31.31
2023-05-05T07:11:39.430Z,31.01
2023-05-05T07:12:41.059Z,30.90
2023-05-05T07:13:42.899Z,31.37
2023-05-05T07:14:44.556Z,30.64
2023-05-05T07:15:49.091Z,30.73
2023-05-05T07:16:51.507Z,30.27
2023-05-05T07:17:53.319Z,30.80
2023-05-05T07:18:55.077Z,30.92
2023-05-05T07:19:56.662Z,31.49
2023-05-05T07:20:58.201Z,31.29
2023-05-05T07:21:59.738Z,31.96
2023-05-05T07:23:01.307Z,32.53
2023-05-05T07:24:03.408Z,31.63
2023-05-05T07:25:05.141Z,31.46
2023-05-05T07:26:06.797Z,31.50
2023-05-05T07:27:08.407Z,31.18
2023-05-05T07:28:10.411Z,31.00
2023-05-05T07:29:12.003Z,31.78
2023-05-05T07:30:16.553Z,30.85
2023-05-05T07:31:19.850Z,31.59
2023-05-05T07:32:21.557Z,31.94
2023-05-05T07:33:23.212Z,31.84
2023-05-05T07:34:24.788Z,32.15
2023-05-05T07:35:26.448Z,32.02
2023-05-05T07:36:28.408Z,31.64
2023-05-05T07:37:30.037Z,32.03
2023-05-05T07:38:31.626Z,31.90
2023-05-05T07:39:33.628Z,31.07
2023-05-05T07:40:35.233Z,31.70
2023-05-05T07:41:36.810Z,31.92
2023-05-05T07:42:38.407Z,31.96
2023-05-05T07:43:44.195Z,31.82
2023-05-05T07:44:46.338Z,32.02
2023-05-05T07:45:47.983Z,32.22
2023-05-05T07:46:49.722Z,31.41
2023-05-05T07:47:51.313Z,31.78
2023-05-05T07:48:52.903Z,30.84
2023-05-05T07:49:54.530Z,31.91
2023-05-05T07:50:56.176Z,31.66
2023-05-05T07:51:57.778Z,31.67
2023-05-05T07:53:06.546Z,31.69
2023-05-05T07:54:17.207Z,31.00
2023-05-05T07:55:18.883Z,31.72
2023-05-05T07:56:21.763Z,32.02
2023-05-05T07:57:23.573Z,31.98
2023-05-05T07:58:25.198Z,32.54
2023-05-05T07:59:26.864Z,32.81
2023-05-05T08:00:28.412Z,32.52
2023-05-05T08:01:30.021Z,32.48
2023-05-05T08:02:31.665Z,32.32
2023-05-05T08:03:33.412Z,32.30
2023-05-05T08:04:35.307Z,31.79
2023-05-05T08:05:38.206Z,31.69
2023-05-05T08:06:39.834Z,32.21
2023-05-05T08:07:41.754Z,32.27
2023-05-05T08:08:43.489Z,32.33
2023-05-05T08:09:45.117Z,32.46
2023-05-05T08:10:46.690Z,32.40
2023-05-05T08:11:48.390Z,32.63
2023-05-05T08:12:50.108Z,33.06
2023-05-05T08:13:51.915Z,32.41
2023-05-05T08:14:53.548Z,31.87
2023-05-05T08:15:55.205Z,31.31
2023-05-05T08:16:56.901Z,30.65
2023-05-05T08:17:58.556Z,31.68
2023-05-05T08:19:00.206Z,31.58
2023-05-05T08:20:01.886Z,31.41
2023-05-05T08:21:04.794Z,32.23
2023-05-05T08:22:06.570Z,32.15
2023-05-05T08:23:08.165Z,31.48
2023-05-05T08:24:09.787Z,30.75
2023-05-05T08:25:12.871Z,29.55
2023-05-05T08:26:14.544Z,29.76
2023-05-05T08:27:16.174Z,30.33
2023-05-05T08:28:17.740Z,30.22
2023-05-05T08:29:19.323Z,29.41
2023-05-05T08:30:22.208Z,27.47
2023-05-05T08:31:23.850Z,28.73
2023-05-05T08:32:26.772Z,28.46
2023-05-05T08:33:30.069Z,28.32
2023-05-05T08:34:31.675Z,28.65
2023-05-05T08:35:33.241Z,29.37
2023-05-05T08:36:34.856Z,29.38
2023-05-05T08:37:36.476Z,30.01
2023-05-05T08:38:38.080Z,30.94
2023-05-05T08:39:39.689Z,29.81
2023-05-05T08:40:41.455Z,29.65
2023-05-05T08:41:43.090Z,30.29
2023-05-05T08:42:45.729Z,29.73
2023-05-05T08:43:50.664Z,29.08
2023-05-05T08:44:52.436Z,28.34
2023-05-05T08:45:56.206Z,28.50
2023-05-05T08:46:58.658Z,27.37
2023-05-05T08:48:01.984Z,29.06
2023-05-05T08:49:05.880Z,30.35
2023-05-05T08:50:10.102Z,30.91
2023-05-05T08:51:19.445Z,31.82
2023-05-05T08:52:24.521Z,31.64
2023-05-05T08:53:37.440Z,31.60
2023-05-05T08:54:44.296Z,32.03
2023-05-05T08:55:50.673Z,32.21
2023-05-05T08:56:52.551Z,32.54
2023-05-05T08:57:58.434Z,31.63
2023-05-05T08:59:01.259Z,31.96
2023-05-05T09:00:04.174Z,31.96
2023-05-05T09:01:06.594Z,31.22
2023-05-05T09:02:09.368Z,31.21
2023-05-05T09:03:12.157Z,29.77
2023-05-05T09:04:13.873Z,30.53
2023-05-05T09:05:16.178Z,30.37
2023-05-05T09:06:20.875Z,31.28
2023-05-05T09:07:24.127Z,31.50
2023-05-05T09:08:25.966Z,32.17
2023-05-05T09:09:27.571Z,31.80
2023-05-05T09:10:29.323Z,31.01
2023-05-05T09:11:32.727Z,32.43
2023-05-05T09:12:34.493Z,33.07
2023-05-05T09:13:36.083Z,32.85
2023-05-05T09:14:37.648Z,32.92
2023-05-05T09:15:41.276Z,33.09
2023-05-05T09:16:44.050Z,32.63
2023-05-05T09:17:46.981Z,32.81
2023-05-05T09:18:48.719Z,33.28
2023-05-05T09:20:12.225Z,30.83
2023-05-05T09:21:24.855Z,30.24
2023-05-05T09:22:40.096Z,30.95
2023-05-05T09:24:08.125Z,32.01
2023-05-05T09:25:12.450Z,31.63
2023-05-05T09:26:14.397Z,31.06
2023-05-05T09:27:23.354Z,28.99
2023-05-05T09:28:24.935Z,28.79
2023-05-05T09:29:26.568Z,29.37
2023-05-05T09:30:28.206Z,29.68
2023-05-05T09:31:33.980Z,29.34
2023-05-05T09:32:44.731Z,29.36
2023-05-05T09:33:46.436Z,29.92
2023-05-05T09:34:59.095Z,29.55
2023-05-05T09:36:00.758Z,28.45
2023-05-05T09:37:02.396Z,27.64
2023-05-05T09:38:13.279Z,28.68
2023-05-05T09:39:17.144Z,26.83
2023-05-05T09:40:20.312Z,25.88
2023-05-05T09:41:39.962Z,24.92
2023-05-05T09:42:41.834Z,24.28
2023-05-05T09:43:51.847Z,24.69
2023-05-05T09:44:54.210Z,24.90
2023-05-05T09:46:07.218Z,24.92
2023-05-05T09:47:21.951Z,25.56
2023-05-05T09:48:31.727Z,25.83
2023-05-05T09:49:33.376Z,26.95
2023-05-05T09:50:44.415Z,27.75
2023-05-05T09:51:47.078Z,27.40
2023-05-05T09:53:02.002Z,26.89
2023-05-05T09:54:03.677Z,25.83
2023-05-05T09:55:05.709Z,24.54
2023-05-05T09:56:07.988Z,24.64
2023-05-05T09:57:09.813Z,24.97
2023-05-05T09:58:24.706Z,24.93
2023-05-05T09:59:26.292Z,25.25
2023-05-05T10:00:40.181Z,25.41
2023-05-05T10:01:43.684Z,24.83
2023-05-05T10:02:45.704Z,25.54
2023-05-05T10:03:52.123Z,26.25
2023-05-05T10:05:05.009Z,27.26
2023-05-05T10:06:07.901Z,28.08
2023-05-05T10:07:22.730Z,27.65
2023-05-05T10:08:32.078Z,26.69
2023-05-05T10:09:33.677Z,25.11
2023-05-05T10:10:35.299Z,23.92
2023-05-05T10:11:36.984Z,24.26
2023-05-05T10:12:39.101Z,23.97
2023-05-05T10:13:41.956Z,24.18
2023-05-05T10:14:43.695Z,25.14
2023-05-05T10:15:46.021Z,25.82
2023-05-05T10:16:50.558Z,25.34
2023-05-05T10:18:05.901Z,25.40
2023-05-05T10:19:10.467Z,25.14
2023-05-05T10:20:13.683Z,25.00
2023-05-05T10:21:20.218Z,25.08
2023-05-05T10:22:23.231Z,24.85
2023-05-05T10:23:36.236Z,24.68
2023-05-05T10:24:42.938Z,24.57
2023-05-05T10:25:52.124Z,24.41
2023-05-05T10:26:56.834Z,24.06
2023-05-05T10:28:00.136Z,24.07
2023-05-05T10:29:02.614Z,24.30
2023-05-05T10:30:08.857Z,24.15
2023-05-05T10:31:26.052Z,23.71
2023-05-05T10:33:53.789Z,23.33
2023-05-05T10:35:01.479Z,23.54
2023-05-05T10:36:05.306Z,23.66
2023-05-05T10:37:07.324Z,23.77
2023-05-05T10:38:09.795Z,23.92
2023-05-05T10:39:11.905Z,23.90
2023-05-05T10:40:17.743Z,23.87
2023-05-05T10:41:20.592Z,23.92
2023-05-05T10:42:23.501Z,23.85
2023-05-05T10:43:25.251Z,23.82
2023-05-05T10:44:27.717Z,23.98
2023-05-05T10:45:29.475Z,24.04
2023-05-05T10:46:31.632Z,24.96
2023-05-05T10:47:33.773Z,25.60
2023-05-05T10:48:46.020Z,24.59
2023-05-05T10:50:00.219Z,24.92
2023-05-05T10:51:10.838Z,25.06
2023-05-05T10:52:21.082Z,25.63
2023-05-05T10:53:26.146Z,26.60
2023-05-05T10:54:38.300Z,27.19
2023-05-05T10:55:46.184Z,27.90
2023-05-05T10:56:48.216Z,28.01
2023-05-05T10:57:52.738Z,28.01
2023-05-05T10:59:00.064Z,27.44
2023-05-05T11:00:02.287Z,27.07
2023-05-05T11:01:05.427Z,28.03
2023-05-05T11:02:29.303Z,28.16
2023-05-05T11:03:31.260Z,28.77
2023-05-05T11:04:32.822Z,29.20
2023-05-05T11:05:34.388Z,29.07
2023-05-05T11:06:36.022Z,28.33
2023-05-05T11:07:37.985Z,28.73
2023-05-05T11:08:40.299Z,29.09
2023-05-05T11:09:58.774Z,29.15
2023-05-05T11:11:00.898Z,29.53
2023-05-05T11:12:03.222Z,29.01
2023-05-05T11:13:04.812Z,28.93
2023-05-05T11:14:22.510Z,28.72
2023-05-05T11:15:24.128Z,29.03
2023-05-05T11:16:44.405Z,29.27
2023-05-05T11:17:47.221Z,29.09
2023-05-05T11:18:48.980Z,28.75
2023-05-05T11:19:52.196Z,27.98
2023-05-05T11:20:59.516Z,26.80
2023-05-05T11:22:02.958Z,26.43
2023-05-05T11:23:05.040Z,26.68
2023-05-05T11:24:26.963Z,26.82
2023-05-05T11:25:34.723Z,27.01
2023-05-05T11:26:50.310Z,26.95
2023-05-05T11:28:11.418Z,27.36
2023-05-05T11:29:13.044Z,27.81
2023-05-05T11:30:16.895Z,27.48
2023-05-05T11:31:19.258Z,26.18
2023-05-05T11:32:20.853Z,26.56
2023-05-05T11:33:32.398Z,25.38
2023-05-05T11:34:33.993Z,26.37
2023-05-05T11:35:58.419Z,26.80
2023-05-05T11:37:05.666Z,27.25
2023-05-05T11:38:08.059Z,27.19
2023-05-05T11:39:21.508Z,27.24
2023-05-05T11:40:27.345Z,26.46
2023-05-05T11:42:09.357Z,26.98
2023-05-05T11:43:12.164Z,26.69
2023-05-05T11:44:20.928Z,26.64
2023-05-05T11:45:25.595Z,26.21
2023-05-05T11:46:27.251Z,25.96
2023-05-05T11:47:29.809Z,25.81
2023-05-05T11:48:31.456Z,25.93
2023-05-05T11:49:34.493Z,25.64
2023-05-05T11:50:36.099Z,25.74
2023-05-05T11:51:37.788Z,25.92
2023-05-05T11:52:39.350Z,25.81
2023-05-05T11:53:45.957Z,25.99
2023-05-05T11:54:48.993Z,25.99
2023-05-05T11:56:06.173Z,26.04
2023-05-05T11:57:09.021Z,26.19
2023-05-05T11:58:20.474Z,25.92
2023-05-05T11:59:22.645Z,25.86
2023-05-05T12:00:33.801Z,25.92
2023-05-05T12:01:39.592Z,26.04
2023-05-05T12:02:41.344Z,26.26
2023-05-05T12:03:45.444Z,26.29
2023-05-05T12:04:47.665Z,26.06
2023-05-05T12:05:49.392Z,25.71
2023-05-05T12:06:51.065Z,25.81
2023-05-05T12:07:57.154Z,25.93
2023-05-05T12:08:59.164Z,26.30
2023-05-05T12:10:01.197Z,25.76
2023-05-05T12:11:04.555Z,24.57
2023-05-05T12:12:06.499Z,25.23
2023-05-05T12:13:18.153Z,24.82
2023-05-05T12:14:20.568Z,25.12
2023-05-05T12:15:28.767Z,25.02
2023-05-05T12:16:30.352Z,24.64
2023-05-05T12:17:40.080Z,24.46
2023-05-05T12:18:42.459Z,24.19
2023-05-05T12:19:53.693Z,24.16
2023-05-05T12:20:55.313Z,23.98
2023-05-05T12:21:57.064Z,24.10
2023-05-05T12:23:04.861Z,23.95
2023-05-05T12:24:06.997Z,24.22
2023-05-05T12:25:09.214Z,24.14
2023-05-05T12:26:24.037Z,24.31
2023-05-05T12:27:26.981Z,23.88
2023-05-05T12:28:43.348Z,23.76
2023-05-05T12:29:44.966Z,23.98
2023-05-05T12:30:59.055Z,24.03
2023-05-05T12:32:00.834Z,24.35
2023-05-05T12:33:06.927Z,24.11
2023-05-05T12:34:09.784Z,24.28
2023-05-05T12:35:13.018Z,24.08
2023-05-05T12:36:15.270Z,24.48
2023-05-05T12:37:18.991Z,24.35
2023-05-05T12:38:20.661Z,24.60
2023-05-05T12:39:22.443Z,24.70
2023-05-05T12:40:43.197Z,24.49
2023-05-05T12:41:44.859Z,24.56
2023-05-05T12:42:46.590Z,24.36
2023-05-05T12:43:48.245Z,24.61
2023-05-05T12:44:49.977Z,24.25
2023-05-05T12:46:01.579Z,24.22
2023-05-05T12:47:03.345Z,24.44
2023-05-05T12:48:23.416Z,24.05
2023-05-05T12:49:25.153Z,24.13
2023-05-05T12:50:31.021Z,24.22
2023-05-05T12:51:33.806Z,24.22
2023-05-05T12:52:43.440Z,24.62
2023-05-05T12:53:49.760Z,24.83
2023-05-05T12:54:58.806Z,24.84
2023-05-05T12:56:00.398Z,24.90
2023-05-05T12:57:11.023Z,24.97
2023-05-05T12:58:12.687Z,24.77
2023-05-05T12:59:23.382Z,24.72
2023-05-05T13:00:25.665Z,24.77
2023-05-05T13:01:28.335Z,24.93
2023-05-05T13:02:36.638Z,24.83
2023-05-05T13:03:38.226Z,24.43
2023-05-05T13:04:53.281Z,24.51
2023-05-05T13:05:54.883Z,24.60
2023-05-05T13:09:30.934Z,24.93
2023-05-05T13:10:32.601Z,24.71
2023-05-05T13:11:38.029Z,24.73
2023-05-05T13:12:39.672Z,24.80
2023-05-05T13:13:42.108Z,24.97
2023-05-05T13:14:44.073Z,24.96
2023-05-05T13:15:45.875Z,24.74
2023-05-05T13:16:47.565Z,24.85
2023-05-05T13:17:49.168Z,24.95
2023-05-05T13:18:51.317Z,24.70
2023-05-05T13:19:52.912Z,25.01
2023-05-05T13:20:54.484Z,25.09
2023-05-05T13:21:57.329Z,24.82
2023-05-05T13:22:58.917Z,24.58
2023-05-05T13:24:12.477Z,24.59
2023-05-05T13:25:22.082Z,24.41
2023-05-05T13:26:24.805Z,24.48
2023-05-05T13:27:26.363Z,24.51
2023-05-05T13:28:27.993Z,24.56
2023-05-05T13:29:31.580Z,24.80
2023-05-05T13:30:33.375Z,24.81
2023-05-05T13:31:35.080Z,24.82
2023-05-05T13:32:36.889Z,24.37
2023-05-05T13:33:38.606Z,24.55
2023-05-05T13:34:40.220Z,24.59
2023-05-05T13:35:41.837Z,24.28
2023-05-05T13:36:43.461Z,24.30
2023-05-05T13:37:46.626Z,24.38
2023-05-05T13:38:48.239Z,24.35
2023-05-05T13:39:49.906Z,24.52
2023-05-05T13:40:51.516Z,24.49
2023-05-05T13:41:53.626Z,24.60
2023-05-05T13:42:55.517Z,24.67
2023-05-05T13:43:57.115Z,24.84
2023-05-05T13:44:58.706Z,24.70
2023-05-05T13:46:08.910Z,24.57
2023-05-05T13:47:20.795Z,24.44
2023-05-05T13:48:22.632Z,24.42
2023-05-05T13:49:24.310Z,24.60
2023-05-05T13:50:25.931Z,24.70
2023-05-05T13:51:27.859Z,24.68
2023-05-05T13:52:31.594Z,24.58
2023-05-05T13:53:35.306Z,24.62
2023-05-05T13:54:36.874Z,24.60
2023-05-05T13:55:38.584Z,24.22
2023-05-05T13:56:40.183Z,24.46
2023-05-05T13:57:41.757Z,24.48
2023-05-05T13:58:43.369Z,24.33
2023-05-05T13:59:44.974Z,24.53
2023-05-05T14:00:46.579Z,24.68
2023-05-05T14:01:48.180Z,24.33